Archival Weather

NSFA McMurdo Sound

NSFA McMurdo Sound, Antarctica (NZCM)

Report from: Friday, September 23, 2022 3:55 AM UTC
Current time: Sunday, December 4, 2022 1:03 PM UTC

Current weather
Weather history
Weather forecast

Temperature-17.8°C (-0.0°F)
Wind chill-25.0°C (-13.0°F)
Dew point-26.1°C (-15.0°F)
Winds 6 kts (3.1 m/s, 6.9 mph) North (360°)
Visibility6.2 mi. (10 km)
Clouds Few clouds 4,100 ft. (1,250 m)
Scattered clouds 4,900 ft. (1,494 m)
Ceiling: Overcast 7,000 ft. (2,134 m)
Altimeter28.63 in.Hg (970 mB)
Relative humidity48 %
Density altitude-2,618 ft. (-798 m)
Sea-level pressure107.0 kPa (1070 mB, 31.60 in.Hg)
Remarks Fully automated report
System requires maintenance
Automated weather observing station with precipitation discriminator
Flight conditions Visual Meteorological Conditions
Raw dataNZCM 230355Z AUTO 36006KT 9999 FEW041 SCT049 OVC070 M18/M26 A2863 RMK AO2 SLP702 T11781261 $
An error has occurred. This application may no longer respond until reloaded. Reload 🗙